Time;durP1;ratioP1;P1;durP2;ratioP2;P2;SDS_P1;SDS_P2;PMS_P1;PMS_P2;Temp;Humidity;BMP_temperature;BMP_pressure;BME280_temperature;BME280_humidity;BME280_pressure;Samples;Min_cycle;Max_cycle;Signal;HPM_P1;HPM_P2
2023/05/06 00:02:28;;;;;;;;;;;;;;;17.82;51.73;100554.69;5311548;32;35685;-70
2023/05/06 00:05:30;;;;;;;;;;;;;;;17.61;52.30;100556.94;5321953;32;34826;-69
2023/05/06 00:08:36;;;;;;;;;;;;;;;16.83;54.58;100558.44;5313348;32;35870;-69
2023/05/06 00:11:38;;;;;;;;;;;;;;;16.03;57.58;100560.56;5325945;32;35234;-75
2023/05/06 00:14:40;;;;;;;;;;;;;;;16.51;56.37;100545.31;5322879;32;35313;-75
2023/05/06 00:17:42;;;;;;;;;;;;;;;17.40;53.37;100550.38;5325178;32;35559;-69
2023/05/06 00:20:44;;;;;;;;;;;;;;;16.88;54.26;100553.69;5336374;32;34449;-76
2023/05/06 00:23:46;;;;;;;;;;;;;;;16.64;54.87;100546.28;5313525;32;34955;-75
2023/05/06 00:26:48;;;;;;;;;;;;;;;16.55;55.53;100549.50;5333449;32;37907;-75
2023/05/06 00:29:50;;;;;;;;;;;;;;;16.60;55.45;100563.31;5320615;32;33627;-75
2023/05/06 00:32:52;;;;;;;;;;;;;;;15.75;57.57;100561.34;5317578;32;34981;-76
2023/05/06 00:35:54;;;;;;;;;;;;;;;15.85;57.13;100564.31;5336848;32;34372;-75
2023/05/06 00:38:56;;;;;;;;;;;;;;;15.68;57.72;100559.97;5328346;32;35816;-70
2023/05/06 00:41:59;;;;;;;;;;;;;;;15.57;57.42;100557.91;5340866;32;34563;-76
2023/05/06 00:45:00;;;;;;;;;;;;;;;16.33;55.43;100557.91;5325591;32;35114;-70
2023/05/06 00:48:03;;;;;;;;;;;;;;;15.26;58.25;100576.44;5330104;32;34800;-75
2023/05/06 00:51:05;;;;;;;;;;;;;;;15.36;58.28;100565.28;5325732;32;35439;-74
2023/05/06 00:54:08;;;;;;;;;;;;;;;15.09;59.01;100565.03;5322146;32;35715;-76
2023/05/06 00:57:12;;;;;;;;;;;;;;;16.31;55.83;100561.59;5335540;32;34909;-69
2023/05/06 01:00:14;;;;;;;;;;;;;;;15.97;56.30;100563.56;5326580;32;34698;-69
2023/05/06 01:03:17;;;;;;;;;;;;;;;15.81;56.55;100560.13;5335871;32;35360;-69
2023/05/06 01:06:26;;;;;;;;;;;;;;;15.79;56.89;100549.63;5326016;32;44838;-75
2023/05/06 01:09:37;;;;;;;;;;;;;;;16.01;56.00;100553.66;5317047;32;35610;-69
2023/05/06 01:12:43;;;;;;;;;;;;;;;15.48;58.13;100554.94;5332767;32;35107;-76
2023/05/06 01:15:50;;;;;;;;;;;;;;;15.42;58.87;100561.44;5325802;32;35707;-78
2023/05/06 01:18:52;;;;;;;;;;;;;;;15.24;59.74;100558.00;5321675;32;46917;-69
2023/05/06 01:21:55;;;;;;;;;;;;;;;15.24;59.78;100557.16;5326267;32;35088;-74
2023/05/06 01:24:57;;;;;;;;;;;;;;;15.16;60.32;100561.09;5322800;32;35762;-69
2023/05/06 01:27:58;;;;;;;;;;;;;;;15.05;60.88;100546.72;5326635;32;34924;-79
2023/05/06 01:31:02;;;;;;;;;;;;;;;14.77;61.59;100560.62;5309342;32;34358;-70
2023/05/06 01:34:09;;;;;;;;;;;;;;;15.21;60.41;100552.06;5320635;32;35251;-76
2023/05/06 01:37:17;;;;;;;;;;;;;;;15.74;58.27;100538.44;5311000;32;34784;-70
2023/05/06 01:40:20;;;;;;;;;;;;;;;15.93;58.16;100535.56;5335147;32;44712;-76
2023/05/06 01:43:25;;;;;;;;;;;;;;;16.43;56.08;100537.84;5325400;32;34877;-76
2023/05/06 01:46:28;;;;;;;;;;;;;;;15.50;58.82;100532.72;5319375;32;35115;-76
2023/05/06 01:49:31;;;;;;;;;;;;;;;15.36;59.40;100533.50;5328990;32;35236;-76
2023/05/06 01:52:33;;;;;;;;;;;;;;;15.32;59.44;100534.59;5308799;32;34793;-76
2023/05/06 01:55:35;;;;;;;;;;;;;;;16.23;56.52;100543.50;5320035;32;36090;-75
2023/05/06 01:58:37;;;;;;;;;;;;;;;14.58;61.40;100543.09;5325664;32;34507;-76
2023/05/06 02:01:39;;;;;;;;;;;;;;;15.35;59.02;100534.44;5323929;32;35014;-69
2023/05/06 02:04:41;;;;;;;;;;;;;;;16.13;56.12;100539.69;5315294;32;34470;-69
2023/05/06 02:07:43;;;;;;;;;;;;;;;15.29;58.91;100532.13;5333179;32;34741;-74
2023/05/06 02:10:45;;;;;;;;;;;;;;;15.33;59.56;100538.97;5318738;32;35241;-69
2023/05/06 02:13:47;;;;;;;;;;;;;;;14.74;61.54;100548.38;5313587;32;34423;-76
2023/05/06 02:16:49;;;;;;;;;;;;;;;14.94;60.92;100551.75;5335664;32;44939;-69
2023/05/06 02:19:51;;;;;;;;;;;;;;;15.26;59.19;100542.03;5327642;32;34744;-69
2023/05/06 02:22:53;;;;;;;;;;;;;;;14.98;60.09;100542.72;5338104;32;35185;-75
2023/05/06 02:25:56;;;;;;;;;;;;;;;15.05;60.02;100526.41;5316499;32;34997;-76
2023/05/06 02:29:00;;;;;;;;;;;;;;;15.48;58.99;100531.09;5326574;32;34702;-74
2023/05/06 02:32:02;;;;;;;;;;;;;;;15.69;57.81;100536.03;5314937;32;34862;-76
2023/05/06 02:35:05;;;;;;;;;;;;;;;15.11;59.91;100544.59;5327308;32;35492;-69
2023/05/06 02:38:07;;;;;;;;;;;;;;;14.76;61.16;100550.97;5336790;32;35821;-69
2023/05/06 02:41:09;;;;;;;;;;;;;;;14.89;60.71;100552.88;5327732;32;35260;-75
2023/05/06 02:44:11;;;;;;;;;;;;;;;14.62;61.59;100554.38;5337374;32;35317;-76
2023/05/06 02:47:13;;;;;;;;;;;;;;;14.89;60.69;100554.66;5331233;32;34758;-77
2023/05/06 02:50:15;;;;;;;;;;;;;;;15.06;60.09;100545.78;5320893;32;34258;-68
2023/05/06 02:53:17;;;;;;;;;;;;;;;14.80;60.81;100547.22;5331662;32;34655;-76
2023/05/06 02:56:19;;;;;;;;;;;;;;;15.17;60.18;100546.06;5311413;32;46845;-69
2023/05/06 02:59:21;;;;;;;;;;;;;;;15.56;58.39;100553.56;5338494;32;34825;-69
2023/05/06 03:02:23;;;;;;;;;;;;;;;15.90;56.52;100556.94;5316207;32;35208;-76
2023/05/06 03:05:25;;;;;;;;;;;;;;;15.06;60.06;100559.03;5338196;32;35138;-76
2023/05/06 03:08:27;;;;;;;;;;;;;;;15.03;60.22;100568.00;5331033;32;34429;-75
2023/05/06 03:11:30;;;;;;;;;;;;;;;15.96;57.25;100548.63;5330749;32;35369;-76
2023/05/06 03:14:32;;;;;;;;;;;;;;;16.33;55.72;100543.78;5333269;32;37730;-76
2023/05/06 03:17:34;;;;;;;;;;;;;;;15.46;58.36;100549.75;5326380;32;35095;-76
2023/05/06 03:20:37;;;;;;;;;;;;;;;14.70;60.81;100553.94;5336518;32;35128;-76
2023/05/06 03:23:39;;;;;;;;;;;;;;;14.87;60.84;100560.03;5326212;32;35621;-76
2023/05/06 03:26:41;;;;;;;;;;;;;;;15.92;57.11;100545.31;5337325;32;35046;-76
2023/05/06 03:29:42;;;;;;;;;;;;;;;15.72;57.33;100535.03;5318802;32;34500;-75
2023/05/06 03:32:44;;;;;;;;;;;;;;;15.41;58.81;100538.53;5313455;32;39292;-69
2023/05/06 03:35:46;;;;;;;;;;;;;;;14.38;62.48;100545.91;5320503;32;35334;-77
2023/05/06 03:38:48;;;;;;;;;;;;;;;14.53;62.30;100545.09;5330717;32;48492;-76
2023/05/06 03:41:50;;;;;;;;;;;;;;;14.30;62.90;100538.37;5327388;32;35013;-76
2023/05/06 03:44:52;;;;;;;;;;;;;;;15.77;57.80;100534.72;5326877;32;35693;-77
2023/05/06 03:47:54;;;;;;;;;;;;;;;15.98;56.90;100538.81;5334586;32;35819;-76
2023/05/06 03:50:59;;;;;;;;;;;;;;;14.72;61.25;100542.34;5325630;32;34737;-76
2023/05/06 03:54:01;;;;;;;;;;;;;;;14.77;61.37;100548.25;5325741;32;34280;-69
2023/05/06 03:57:03;;;;;;;;;;;;;;;14.78;61.32;100549.94;5334640;32;34774;-70
2023/05/06 04:00:05;;;;;;;;;;;;;;;15.51;58.92;100541.50;5327955;32;34809;-77
2023/05/06 04:03:07;;;;;;;;;;;;;;;15.08;59.75;100546.59;5324037;32;34818;-69
2023/05/06 04:06:09;;;;;;;;;;;;;;;14.93;60.39;100555.34;5317397;32;34261;-75
2023/05/06 04:09:11;;;;;;;;;;;;;;;15.11;59.76;100556.97;5326294;32;34988;-75
2023/05/06 04:12:13;;;;;;;;;;;;;;;14.54;62.15;100569.75;5323709;32;35303;-77
2023/05/06 04:15:15;;;;;;;;;;;;;;;15.16;59.63;100568.19;5327881;32;34805;-70
2023/05/06 04:18:18;;;;;;;;;;;;;;;15.58;57.49;100561.41;5335206;32;35541;-69
2023/05/06 04:21:20;;;;;;;;;;;;;;;15.35;57.80;100563.56;5326308;32;45016;-77
2023/05/06 04:24:22;;;;;;;;;;;;;;;14.43;61.31;100564.16;5337667;32;34514;-69
2023/05/06 04:27:26;;;;;;;;;;;;;;;14.77;60.33;100563.25;5326634;32;36055;-76
2023/05/06 04:30:28;;;;;;;;;;;;;;;15.81;56.47;100555.69;5311765;32;35163;-70
2023/05/06 04:33:31;;;;;;;;;;;;;;;16.35;55.26;100563.94;5322814;32;34230;-69
2023/05/06 04:36:33;;;;;;;;;;;;;;;15.35;58.18;100566.22;5325933;32;35101;-75
2023/05/06 04:39:38;;;;;;;;;;;;;;;15.31;58.95;100564.66;5337793;32;34374;-76
2023/05/06 04:42:40;;;;;;;;;;;;;;;15.76;58.17;100570.13;5313207;32;34954;-69
2023/05/06 04:45:48;;;;;;;;;;;;;;;15.86;57.60;100564.22;5336463;32;35280;-69
2023/05/06 04:48:50;;;;;;;;;;;;;;;16.16;56.27;100564.19;5325872;32;46267;-76
2023/05/06 04:51:53;;;;;;;;;;;;;;;16.04;56.85;100569.41;5332229;32;34610;-69
2023/05/06 04:54:54;;;;;;;;;;;;;;;17.08;53.48;100566.56;5324918;32;34377;-75
2023/05/06 04:57:56;;;;;;;;;;;;;;;16.57;55.14;100568.81;5324320;32;34873;-69
2023/05/06 05:01:07;;;;;;;;;;;;;;;16.32;56.09;100584.50;5335747;32;35614;-75
2023/05/06 05:04:09;;;;;;;;;;;;;;;16.12;56.51;100586.56;5325998;32;35031;-77
2023/05/06 05:07:11;;;;;;;;;;;;;;;16.78;54.58;100583.47;5325458;32;35042;-70
2023/05/06 05:10:13;;;;;;;;;;;;;;;17.37;53.40;100590.41;5312691;32;36416;-78
2023/05/06 05:13:15;;;;;;;;;;;;;;;16.71;55.17;100591.91;5330424;32;34779;-69
2023/05/06 05:16:17;;;;;;;;;;;;;;;16.02;57.67;100597.78;5330692;32;35529;-68
2023/05/06 05:19:20;;;;;;;;;;;;;;;16.76;55.33;100590.66;5311354;32;47020;-75
2023/05/06 05:22:21;;;;;;;;;;;;;;;16.40;56.23;100598.16;5335812;32;34262;-75
2023/05/06 05:25:23;;;;;;;;;;;;;;;16.53;56.17;100592.03;5325799;32;35177;-76
2023/05/06 05:28:26;;;;;;;;;;;;;;;16.63;56.16;100584.38;5335569;32;35359;-76
2023/05/06 05:31:30;;;;;;;;;;;;;;;16.80;55.37;100586.00;5295747;32;35488;-74
2023/05/06 05:34:32;;;;;;;;;;;;;;;17.44;53.90;100587.25;5319211;32;34427;-76
2023/05/06 05:37:34;;;;;;;;;;;;;;;18.07;52.31;100585.81;5326358;32;35910;-69
2023/05/06 05:40:36;;;;;;;;;;;;;;;18.58;50.45;100588.56;5300035;32;1041459;-69
2023/05/06 05:43:38;;;;;;;;;;;;;;;18.71;50.35;100586.78;5341795;32;34848;-75
2023/05/06 05:46:40;;;;;;;;;;;;;;;18.11;51.84;100585.53;5332274;32;35312;-69
2023/05/06 05:49:42;;;;;;;;;;;;;;;20.00;47.05;100572.97;5326622;32;34977;-70
2023/05/06 05:52:44;;;;;;;;;;;;;;;19.86;46.35;100575.84;5326698;32;35920;-69
2023/05/06 05:55:48;;;;;;;;;;;;;;;19.28;47.91;100586.25;5332255;32;44857;-69
2023/05/06 05:58:50;;;;;;;;;;;;;;;20.68;45.18;100568.69;5337633;32;34391;-75
2023/05/06 06:01:52;;;;;;;;;;;;;;;20.85;44.44;100580.69;5317300;32;35146;-69
2023/05/06 06:04:54;;;;;;;;;;;;;;;21.34;42.66;100575.84;5344198;32;34920;-75
2023/05/06 06:07:57;;;;;;;;;;;;;;;22.50;40.25;100573.31;5316410;32;35526;-77
2023/05/06 06:11:00;;;;;;;;;;;;;;;21.98;41.12;100572.34;5326849;32;34619;-69
2023/05/06 06:14:02;;;;;;;;;;;;;;;21.42;42.51;100564.50;5330857;32;35456;-70
2023/05/06 06:17:04;;;;;;;;;;;;;;;23.04;39.67;100563.28;5333868;32;35045;-76
2023/05/06 06:20:07;;;;;;;;;;;;;;;23.30;39.05;100567.19;5337590;32;35297;-70
2023/05/06 06:23:09;;;;;;;;;;;;;;;22.63;40.26;100567.75;5315794;32;34209;-76
2023/05/06 06:26:12;;;;;;;;;;;;;;;22.34;40.80;100570.25;5339568;32;35166;-76
2023/05/06 06:29:14;;;;;;;;;;;;;;;23.11;40.01;100567.13;5330625;32;35247;-76
2023/05/06 06:32:16;;;;;;;;;;;;;;;21.51;42.89;100574.47;5319740;32;35462;-70
2023/05/06 06:35:22;;;;;;;;;;;;;;;23.48;39.39;100553.94;5329418;32;45517;-74
2023/05/06 06:38:24;;;;;;;;;;;;;;;23.97;38.21;100553.03;5315738;32;35374;-69
2023/05/06 06:41:27;;;;;;;;;;;;;;;23.94;37.77;100555.97;5326298;32;34883;-70
2023/05/06 06:44:29;;;;;;;;;;;;;;;22.34;41.10;100563.06;5329855;32;35353;-76
2023/05/06 06:47:31;;;;;;;;;;;;;;;24.66;36.33;100551.06;5338205;32;34507;-69
2023/05/06 06:50:33;;;;;;;;;;;;;;;22.84;40.36;100556.97;5325941;32;35509;-69
2023/05/06 06:53:35;;;;;;;;;;;;;;;23.71;38.79;100552.75;5319729;32;35811;-76
2023/05/06 06:56:37;;;;;;;;;;;;;;;24.09;37.98;100543.00;5325850;32;34691;-76
2023/05/06 06:59:38;;;;;;;;;;;;;;;25.44;34.96;100538.09;5326624;32;34586;-75
2023/05/06 07:02:41;;;;;;;;;;;;;;;25.63;34.64;100536.16;5336216;32;35003;-76
2023/05/06 07:05:43;;;;;;;;;;;;;;;24.13;37.40;100544.38;5331294;32;35470;-77
2023/05/06 07:08:45;;;;;;;;;;;;;;;24.35;36.90;100545.94;5328836;32;35127;-71
2023/05/06 07:11:49;;;;;;;;;;;;;;;27.06;32.23;100530.44;5326540;32;47936;-70
2023/05/06 07:14:51;;;;;;;;;;;;;;;25.36;35.20;100542.41;5335177;32;35495;-71
2023/05/06 07:17:53;;;;;;;;;;;;;;;25.99;34.07;100535.28;5325563;32;34353;-71
2023/05/06 07:20:55;;;;;;;;;;;;;;;25.47;35.50;100545.87;5312800;32;35220;-77
2023/05/06 07:23:58;;;;;;;;;;;;;;;28.01;30.69;100537.19;5336591;32;34549;-76
2023/05/06 07:27:00;;;;;;;;;;;;;;;28.04;30.88;100542.28;5312474;32;35090;-77
2023/05/06 07:30:02;;;;;;;;;;;;;;;26.41;33.96;100547.09;5323414;32;35982;-77
2023/05/06 07:33:04;;;;;;;;;;;;;;;25.83;34.82;100544.94;5303441;32;35132;-71
2023/05/06 07:36:06;;;;;;;;;;;;;;;26.15;34.67;100538.97;5336139;32;34571;-76
2023/05/06 07:39:09;;;;;;;;;;;;;;;27.30;32.37;100539.59;5335581;32;34033;-77
2023/05/06 07:42:11;;;;;;;;;;;;;;;27.86;31.27;100538.87;5325604;32;35544;-70
2023/05/06 07:45:14;;;;;;;;;;;;;;;29.76;28.20;100523.59;5334993;32;36120;-69
2023/05/06 07:48:17;;;;;;;;;;;;;;;27.42;31.34;100535.59;5312573;32;35231;-71
2023/05/06 07:51:21;;;;;;;;;;;;;;;27.09;32.91;100532.81;5334862;32;46101;-77
2023/05/06 07:54:23;;;;;;;;;;;;;;;25.86;35.31;100533.84;5308912;32;34858;-70
2023/05/06 07:57:25;;;;;;;;;;;;;;;26.34;34.58;100535.25;5332260;32;35473;-75
2023/05/06 08:00:27;;;;;;;;;;;;;;;26.23;34.59;100535.50;5329260;32;35558;-70
2023/05/06 08:03:29;;;;;;;;;;;;;;;26.65;33.56;100538.28;5324891;32;35217;-70
2023/05/06 08:06:31;;;;;;;;;;;;;;;28.76;30.47;100530.69;5338449;32;35284;-76
2023/05/06 08:09:33;;;;;;;;;;;;;;;29.94;28.46;100531.38;5327141;32;34802;-77
2023/05/06 08:12:36;;;;;;;;;;;;;;;29.98;28.31;100532.72;5320667;32;34737;-77
2023/05/06 08:15:38;;;;;;;;;;;;;;;29.24;29.23;100536.91;5311889;32;34941;-77
2023/05/06 08:18:40;;;;;;;;;;;;;;;30.68;27.23;100528.87;5318150;32;34889;-76
2023/05/06 08:21:42;;;;;;;;;;;;;;;28.09;31.35;100533.66;5332957;32;35079;-70
2023/05/06 08:24:44;;;;;;;;;;;;;;;28.91;29.69;100539.75;5310405;32;34386;-77
2023/05/06 08:27:46;;;;;;;;;;;;;;;27.80;31.42;100545.81;5321224;32;35196;-70
2023/05/06 08:30:50;;;;;;;;;;;;;;;28.87;30.13;100533.84;5308894;32;43537;-77
2023/05/06 08:33:52;;;;;;;;;;;;;;;29.18;29.68;100532.25;5332479;32;34865;-77
2023/05/06 08:36:55;;;;;;;;;;;;;;;29.57;28.87;100533.03;5311550;32;34498;-78
2023/05/06 08:39:58;;;;;;;;;;;;;;;29.42;29.49;100530.19;5328644;32;34383;-77
2023/05/06 08:43:01;;;;;;;;;;;;;;;29.24;29.15;100534.19;5330907;32;34804;-71
2023/05/06 08:46:03;;;;;;;;;;;;;;;28.60;30.53;100534.28;5311716;32;34547;-70
2023/05/06 08:49:05;;;;;;;;;;;;;;;30.75;26.90;100529.78;5326029;32;35663;-79
2023/05/06 08:52:07;;;;;;;;;;;;;;;31.74;25.14;100524.69;5308027;32;35042;-77
2023/05/06 08:55:09;;;;;;;;;;;;;;;31.17;25.81;100526.38;5333035;32;35227;-76
2023/05/06 08:58:13;;;;;;;;;;;;;;;30.96;26.59;100523.59;5311421;32;34962;-71
2023/05/06 09:01:15;;;;;;;;;;;;;;;32.86;24.03;100512.00;5329697;32;35470;-72
2023/05/06 09:04:17;;;;;;;;;;;;;;;31.75;25.15;100516.38;5330950;32;35560;-76
2023/05/06 09:07:20;;;;;;;;;;;;;;;29.92;27.64;100517.19;5324857;32;46821;-71
2023/05/06 09:10:22;;;;;;;;;;;;;;;28.25;30.62;100513.88;5319628;32;34260;-70
2023/05/06 09:13:23;;;;;;;;;;;;;;;29.91;27.98;100504.66;5325672;32;35296;-76
2023/05/06 09:16:27;;;;;;;;;;;;;;;29.60;27.61;100508.28;5334670;32;34969;-76
2023/05/06 09:19:30;;;;;;;;;;;;;;;28.18;30.18;100510.19;5324847;32;34985;-70
2023/05/06 09:22:32;;;;;;;;;;;;;;;27.21;32.17;100506.38;5329515;32;34280;-71
2023/05/06 09:25:34;;;;;;;;;;;;;;;29.25;29.10;100511.56;5323788;32;34408;-70
2023/05/06 09:28:36;;;;;;;;;;;;;;;31.57;24.75;100491.53;5324806;32;35310;-77
2023/05/06 09:31:42;;;;;;;;;;;;;;;32.05;22.75;100483.59;5300072;32;34191;-71
2023/05/06 09:34:45;;;;;;;;;;;;;;;31.30;24.29;100503.12;5324244;32;34425;-70
2023/05/06 09:37:47;;;;;;;;;;;;;;;31.69;24.24;100483.72;5318903;32;34853;-77
2023/05/06 09:40:49;;;;;;;;;;;;;;;32.51;22.83;100477.66;5325635;32;45263;-77
2023/05/06 09:43:52;;;;;;;;;;;;;;;31.00;25.26;100484.19;5313203;32;34375;-70
2023/05/06 09:46:53;;;;;;;;;;;;;;;32.77;22.91;100476.94;5314466;32;34799;-77
2023/05/06 09:49:57;;;;;;;;;;;;;;;30.92;25.49;100485.16;5310557;32;34984;-78
2023/05/06 09:52:59;;;;;;;;;;;;;;;31.23;24.16;100476.75;5317833;32;34868;-77
2023/05/06 09:56:02;;;;;;;;;;;;;;;30.90;24.44;100480.94;5307699;32;34936;-72
2023/05/06 09:59:04;;;;;;;;;;;;;;;30.94;24.71;100474.09;5321418;32;34788;-77
2023/05/06 10:02:06;;;;;;;;;;;;;;;30.42;25.41;100469.62;5325901;32;38808;-75
2023/05/06 10:05:08;;;;;;;;;;;;;;;31.86;23.42;100454.41;5324524;32;35401;-77
2023/05/06 10:08:13;;;;;;;;;;;;;;;32.62;21.83;100455.34;5320900;32;34590;-76
2023/05/06 10:11:16;;;;;;;;;;;;;;;33.01;21.34;100456.56;5310884;32;34937;-71
2023/05/06 10:14:18;;;;;;;;;;;;;;;31.13;23.89;100443.63;5333861;32;45276;-75
2023/05/06 10:17:23;;;;;;;;;;;;;;;28.68;27.03;100449.59;5322022;32;35405;-76
2023/05/06 10:20:26;;;;;;;;;;;;;;;29.29;26.11;100439.78;5334815;32;35808;-70
2023/05/06 10:23:28;;;;;;;;;;;;;;;30.04;24.64;100447.97;5329537;32;34880;-70
2023/05/06 10:26:30;;;;;;;;;;;;;;;31.64;22.04;100435.38;5326369;32;35034;-76
2023/05/06 10:29:33;;;;;;;;;;;;;;;28.50;26.57;100447.97;5316766;32;36280;-71
2023/05/06 10:32:35;;;;;;;;;;;;;;;30.42;24.39;100437.94;5299671;32;36094;-76
2023/05/06 10:35:40;;;;;;;;;;;;;;;30.59;24.53;100432.28;5322901;32;34330;-76
2023/05/06 10:38:43;;;;;;;;;;;;;;;29.30;26.48;100430.63;5325994;32;35551;-77
2023/05/06 10:41:45;;;;;;;;;;;;;;;29.29;26.43;100440.63;5334355;32;35382;-76
2023/05/06 10:44:56;;;;;;;;;;;;;;;29.42;26.40;100421.91;5314237;32;35538;-70
2023/05/06 10:48:01;;;;;;;;;;;;;;;27.85;28.27;100422.94;5326296;32;35339;-79
2023/05/06 10:51:12;;;;;;;;;;;;;;;28.26;26.48;100410.16;5335765;32;35118;-79
2023/05/06 10:54:17;;;;;;;;;;;;;;;29.36;25.53;100400.13;5307844;32;35076;-76
2023/05/06 10:57:25;;;;;;;;;;;;;;;28.98;25.76;100412.75;5332719;32;46708;-76
2023/05/06 11:00:30;;;;;;;;;;;;;;;29.56;24.44;100403.22;5331585;32;35638;-70
2023/05/06 11:03:32;;;;;;;;;;;;;;;30.93;23.30;100391.00;5311552;32;34871;-72
2023/05/06 11:06:41;;;;;;;;;;;;;;;29.79;25.02;100393.19;5326050;32;35033;-71
2023/05/06 11:09:55;;;;;;;;;;;;;;;29.43;25.04;100387.56;5311830;32;35327;-78
2023/05/06 11:12:57;;;;;;;;;;;;;;;29.38;24.71;100390.84;5333610;32;45033;-77
2023/05/06 11:16:01;;;;;;;;;;;;;;;29.21;25.86;100391.12;5311974;32;34546;-76
2023/05/06 11:19:03;;;;;;;;;;;;;;;27.46;28.71;100397.44;5330887;32;34590;-70
2023/05/06 11:22:05;;;;;;;;;;;;;;;28.79;26.10;100395.97;5318716;32;36835;-75
2023/05/06 11:25:08;;;;;;;;;;;;;;;28.85;26.51;100394.38;5325608;32;35007;-80
2023/05/06 11:28:10;;;;;;;;;;;;;;;27.71;28.08;100398.31;5322959;32;34850;-76
2023/05/06 11:31:12;;;;;;;;;;;;;;;27.23;29.20;100399.13;5305884;32;34866;-78
2023/05/06 11:34:19;;;;;;;;;;;;;;;27.91;28.95;100400.66;5335296;32;34923;-77
2023/05/06 11:37:25;;;;;;;;;;;;;;;28.46;27.35;100395.25;5311322;32;46175;-70
2023/05/06 11:40:30;;;;;;;;;;;;;;;27.73;28.28;100393.56;5326355;32;35229;-77
2023/05/06 11:43:32;;;;;;;;;;;;;;;29.37;26.29;100391.03;5322190;32;35443;-77
2023/05/06 11:46:34;;;;;;;;;;;;;;;28.57;27.40;100400.28;5326627;32;35660;-72
2023/05/06 11:49:40;;;;;;;;;;;;;;;28.69;27.46;100391.78;5321945;32;35115;-71
2023/05/06 11:52:42;;;;;;;;;;;;;;;29.16;25.86;100391.66;5321486;32;35096;-77
2023/05/06 11:55:44;;;;;;;;;;;;;;;28.85;26.58;100400.66;5319845;32;34442;-70
2023/05/06 11:58:46;;;;;;;;;;;;;;;27.99;26.99;100398.75;5311897;32;34849;-71
2023/05/06 12:01:48;;;;;;;;;;;;;;;27.23;27.79;100401.81;5325936;32;44887;-76
2023/05/06 12:04:51;;;;;;;;;;;;;;;27.24;27.50;100404.38;5338252;32;35065;-76
2023/05/06 12:07:53;;;;;;;;;;;;;;;26.95;28.14;100402.09;5324474;32;33342;-76
2023/05/06 12:11:08;;;;;;;;;;;;;;;27.77;27.44;100407.59;5335856;32;35086;-77
2023/05/06 12:14:10;;;;;;;;;;;;;;;27.65;27.73;100395.41;5311164;32;35332;-76
2023/05/06 12:17:12;;;;;;;;;;;;;;;27.44;28.01;100399.50;5332094;32;34899;-70
2023/05/06 12:20:14;;;;;;;;;;;;;;;27.30;28.21;100402.00;5316174;32;35478;-72
2023/05/06 12:23:16;;;;;;;;;;;;;;;27.61;27.60;100400.31;5325752;32;35004;-77
2023/05/06 12:26:18;;;;;;;;;;;;;;;26.41;29.44;100395.38;5335339;32;46881;-75
2023/05/06 12:29:20;;;;;;;;;;;;;;;26.55;29.40;100391.19;5320921;32;35120;-70
2023/05/06 12:32:22;;;;;;;;;;;;;;;27.20;28.40;100386.81;5303252;32;35763;-75
2023/05/06 12:35:25;;;;;;;;;;;;;;;27.47;28.06;100377.53;5313103;32;35043;-75
2023/05/06 12:38:27;;;;;;;;;;;;;;;26.70;28.87;100386.84;5331725;32;34552;-70
2023/05/06 12:41:36;;;;;;;;;;;;;;;26.31;29.50;100390.06;5317876;32;34848;-70
2023/05/06 12:44:39;;;;;;;;;;;;;;;26.20;29.86;100388.47;5324463;32;35657;-70
2023/05/06 12:47:50;;;;;;;;;;;;;;;25.40;31.77;100389.59;5320817;32;35418;-70
2023/05/06 12:50:52;;;;;;;;;;;;;;;25.35;32.27;100390.06;5322696;32;46203;-71
2023/05/06 12:53:55;;;;;;;;;;;;;;;25.35;32.61;100389.22;5336270;32;34945;-69
2023/05/06 12:56:57;;;;;;;;;;;;;;;26.06;31.69;100385.53;5322798;32;34794;-76
2023/05/06 12:59:59;;;;;;;;;;;;;;;26.45;31.03;100381.38;5312540;32;34977;-72
2023/05/06 13:03:01;;;;;;;;;;;;;;;25.96;31.94;100380.28;5333339;32;35174;-76
2023/05/06 13:06:03;;;;;;;;;;;;;;;25.89;32.15;100384.59;5311582;32;34860;-77
2023/05/06 13:09:06;;;;;;;;;;;;;;;26.41;31.21;100374.66;5322035;32;35420;-76
2023/05/06 13:12:07;;;;;;;;;;;;;;;25.28;32.88;100380.94;5311527;32;33775;-70
2023/05/06 13:15:10;;;;;;;;;;;;;;;25.30;32.94;100383.47;5336504;32;34594;-76
2023/05/06 13:18:12;;;;;;;;;;;;;;;25.84;31.77;100379.72;5311767;32;35426;-76
2023/05/06 13:21:13;;;;;;;;;;;;;;;26.17;30.91;100383.41;5325993;32;34856;-70
2023/05/06 13:24:16;;;;;;;;;;;;;;;25.87;31.32;100382.06;5335082;32;34964;-76
2023/05/06 13:27:17;;;;;;;;;;;;;;;25.30;32.17;100378.91;5308373;32;34891;-70
2023/05/06 13:30:20;;;;;;;;;;;;;;;24.70;33.17;100377.81;5322040;32;34877;-77
2023/05/06 13:33:22;;;;;;;;;;;;;;;24.94;32.58;100372.69;5317820;32;34846;-76
2023/05/06 13:36:25;;;;;;;;;;;;;;;25.27;32.18;100378.41;5308586;32;34980;-71
2023/05/06 13:39:27;;;;;;;;;;;;;;;25.09;32.25;100373.88;5325069;32;35348;-76
2023/05/06 13:42:30;;;;;;;;;;;;;;;25.06;32.18;100370.66;5326555;32;34637;-70
2023/05/06 13:45:32;;;;;;;;;;;;;;;24.88;34.12;100391.28;5321478;32;34608;-76
2023/05/06 13:48:34;;;;;;;;;;;;;;;23.61;38.00;100393.59;5311077;32;34751;-70
2023/05/06 13:51:36;;;;;;;;;;;;;;;23.52;38.75;100397.13;5333443;32;35109;-69
2023/05/06 13:54:38;;;;;;;;;;;;;;;22.97;40.65;100411.06;5306962;32;35289;-77
2023/05/06 13:57:40;;;;;;;;;;;;;;;23.31;40.27;100386.53;5322161;32;36376;-76
2023/05/06 14:00:42;;;;;;;;;;;;;;;22.24;42.70;100406.03;5315427;32;35140;-77
2023/05/06 14:03:45;;;;;;;;;;;;;;;22.25;42.83;100415.75;5325817;32;34907;-70
2023/05/06 14:06:47;;;;;;;;;;;;;;;21.46;44.77;100410.03;5336765;32;34881;-76
2023/05/06 14:09:49;;;;;;;;;;;;;;;21.93;44.02;100410.50;5326450;32;44486;-75
2023/05/06 14:12:51;;;;;;;;;;;;;;;22.08;43.48;100410.00;5337145;32;36121;-70
2023/05/06 14:15:53;;;;;;;;;;;;;;;22.36;42.80;100399.59;5327027;32;35842;-77
2023/05/06 14:18:55;;;;;;;;;;;;;;;21.51;45.39;100399.78;5322830;32;35054;-76
2023/05/06 14:21:57;;;;;;;;;;;;;;;21.61;45.60;100395.38;5316854;32;36703;-77
2023/05/06 14:24:59;;;;;;;;;;;;;;;21.47;46.18;100401.88;5312610;32;35086;-76
2023/05/06 14:28:01;;;;;;;;;;;;;;;21.71;46.02;100408.81;5323696;32;34109;-70
2023/05/06 14:31:03;;;;;;;;;;;;;;;21.94;46.16;100405.00;5294693;32;34930;-78
2023/05/06 14:34:05;;;;;;;;;;;;;;;21.71;46.81;100398.12;5325903;32;34095;-75
2023/05/06 14:37:07;;;;;;;;;;;;;;;22.44;44.52;100389.06;5312698;32;35172;-77
2023/05/06 14:40:09;;;;;;;;;;;;;;;22.31;46.25;100393.81;5336127;32;35658;-70
2023/05/06 14:43:11;;;;;;;;;;;;;;;22.05;47.36;100396.91;5328661;32;35742;-76
2023/05/06 14:46:14;;;;;;;;;;;;;;;22.22;48.38;100391.91;5326219;32;35760;-76
2023/05/06 14:49:17;;;;;;;;;;;;;;;21.42;52.26;100390.72;5335829;32;35234;-70
2023/05/06 14:52:19;;;;;;;;;;;;;;;20.72;53.77;100394.72;5322672;32;46254;-76
2023/05/06 14:55:21;;;;;;;;;;;;;;;20.95;54.69;100394.66;5319775;32;34861;-70
2023/05/06 14:58:23;;;;;;;;;;;;;;;20.75;57.71;100396.31;5326274;32;35830;-70
2023/05/06 15:01:25;;;;;;;;;;;;;;;20.39;59.16;100384.06;5335948;32;35385;-76
2023/05/06 15:04:27;;;;;;;;;;;;;;;20.70;57.43;100380.63;5313957;32;35010;-76
2023/05/06 15:07:28;;;;;;;;;;;;;;;20.95;56.97;100378.63;5325440;32;34974;-71
2023/05/06 15:10:30;;;;;;;;;;;;;;;20.72;57.21;100384.03;5337334;32;35351;-77
2023/05/06 15:13:32;;;;;;;;;;;;;;;20.83;57.11;100359.13;5325679;32;35243;-70
2023/05/06 15:16:34;;;;;;;;;;;;;;;21.69;55.45;100370.62;5337419;32;35545;-76
2023/05/06 15:19:37;;;;;;;;;;;;;;;21.76;53.85;100375.31;5327070;32;34849;-77
2023/05/06 15:22:39;;;;;;;;;;;;;;;21.89;52.88;100381.31;5334142;32;36404;-75
2023/05/06 15:25:41;;;;;;;;;;;;;;;20.35;58.20;100375.47;5331619;32;35131;-70
2023/05/06 15:28:43;;;;;;;;;;;;;;;20.92;56.35;100369.03;5327095;32;35114;-76
2023/05/06 15:31:45;;;;;;;;;;;;;;;20.98;55.82;100370.34;5309912;32;35781;-71
2023/05/06 15:34:47;;;;;;;;;;;;;;;20.44;56.99;100356.03;5326077;32;35199;-70
2023/05/06 15:37:51;;;;;;;;;;;;;;;20.99;55.67;100359.53;5336643;32;44613;-75